Time;durP1;ratioP1;P1;durP2;ratioP2;P2;SDS_P1;SDS_P2;PMS_P1;PMS_P2;Temp;Humidity;BMP_temperature;BMP_pressure;BME280_temperature;BME280_humidity;BME280_pressure;Samples;Min_cycle;Max_cycle;Signal;HPM_P1;HPM_P2
2021/11/17 02:26:51;;;;;;;18.30;10.23;;;;;;;6.95;67.99;100119.38;6123827;23;20641;-60
2021/11/17 02:29:37;;;;;;;22.27;10.48;;;;;;;6.91;68.57;100114.25;6123353;23;20081;-60
2021/11/17 02:32:23;;;;;;;21.33;10.43;;;;;;;6.90;68.89;100119.53;6097818;23;20021;-62
2021/11/17 02:35:14;;;;;;;20.05;10.05;;;;;;;6.90;68.62;100117.78;6123707;23;20049;-60
2021/11/17 02:37:50;;;;;;;18.70;10.00;;;;;;;6.90;68.36;100111.69;6123043;23;20026;-60
2021/11/17 02:40:48;;;;;;;21.48;10.52;;;;;;;6.88;69.16;100106.50;6073799;23;20029;-62
2021/11/17 02:43:30;;;;;;;20.52;9.68;;;;;;;6.90;68.80;100102.09;6125512;23;20033;-63
2021/11/17 02:46:03;;;;;;;17.83;9.50;;;;;;;6.90;68.48;100089.00;6075489;23;20022;-60
2021/11/17 02:48:51;;;;;;;20.85;10.93;;;;;;;6.87;69.10;100094.34;6125451;23;20246;-62
2021/11/17 02:51:39;;;;;;;21.08;10.18;;;;;;;6.87;69.27;100088.25;6124694;23;20029;-61
2021/11/17 02:54:18;;;;;;;21.77;10.25;;;;;;;6.87;69.15;100096.94;6125366;23;20018;-61
2021/11/17 02:56:47;;;;;;;20.23;10.55;;;;;;;6.88;68.69;100090.81;6125378;23;20105;-63
2021/11/17 02:59:26;;;;;;;21.98;10.32;;;;;;;6.86;69.27;100090.03;6125096;23;20136;-62
2021/11/17 03:01:56;;;;;;;19.45;10.65;;;;;;;6.87;69.19;100096.09;6125106;23;20105;-61
2021/11/17 03:04:36;;;;;;;21.77;11.85;;;;;;;6.85;68.88;100087.47;6125354;23;20018;-61
2021/11/17 03:07:21;;;;;;;22.40;10.90;;;;;;;6.86;69.01;100083.91;6075547;23;20018;-64
2021/11/17 03:09:59;;;;;;;24.67;12.23;;;;;;;6.88;68.87;100075.09;6124987;23;20443;-60
2021/11/17 03:12:45;;;;;;;23.98;11.02;;;;;;;6.87;69.52;100086.50;6075221;23;20443;-61
2021/11/17 03:15:23;;;;;;;23.63;11.88;;;;;;;6.90;69.14;100085.53;6125263;23;20028;-62
2021/11/17 03:18:14;;;;;;;23.88;12.75;;;;;;;6.87;69.52;100085.63;6125014;23;20058;-62
2021/11/17 03:21:07;;;;;;;25.45;12.48;;;;;;;6.87;69.66;100086.50;6124782;23;20037;-64
2021/11/17 03:23:55;;;;;;;29.73;13.73;;;;;;;6.89;69.34;100084.66;6125074;23;20121;-61
2021/11/17 03:26:37;;;;;;;27.23;13.52;;;;;;;6.88;69.23;100082.94;6124644;23;20032;-62
2021/11/17 03:29:29;;;;;;;26.48;12.63;;;;;;;6.87;69.98;100088.25;6124795;23;20026;-66
2021/11/17 03:32:17;;;;;;;29.08;13.32;;;;;;;6.86;69.60;100090.03;6099345;23;20451;-61
2021/11/17 03:34:46;;;;;;;29.48;13.38;;;;;;;6.89;69.47;100084.66;6125430;23;20383;-60
2021/11/17 03:37:37;;;;;;;29.52;13.55;;;;;;;6.86;70.32;100076.94;6124676;23;20025;-61
2021/11/17 03:40:26;;;;;;;30.83;13.05;;;;;;;6.88;70.24;100079.50;6124490;23;20025;-61
2021/11/17 03:43:07;;;;;;;29.02;12.75;;;;;;;6.88;70.51;100074.28;6075320;23;20025;-61
2021/11/17 03:45:36;;;;;;;26.33;12.98;;;;;;;6.90;69.85;100081.16;6124619;23;20025;-64
2021/11/17 03:48:36;;;;;;;26.98;12.95;;;;;;;6.88;70.39;100069.88;6124363;23;20506;-60
2021/11/17 03:51:13;;;;;;;29.08;13.50;;;;;;;6.89;69.75;100071.56;6102656;23;20022;-62
2021/11/17 03:54:02;;;;;;;28.50;13.05;;;;;;;6.88;70.44;100077.72;6087371;23;20041;-62
2021/11/17 03:56:40;;;;;;;30.63;12.45;;;;;;;6.90;69.93;100070.69;6124653;23;20032;-61
2021/11/17 03:59:17;;;;;;;32.95;14.93;;;;;;;6.94;69.55;100075.78;6124726;23;20045;-63
2021/11/17 04:02:33;;;;;;;30.50;13.82;;;;;;;6.90;70.36;100077.66;6124852;23;20026;-60
2021/11/17 04:05:06;;;;;;;26.60;12.95;;;;;;;6.94;70.08;100089.72;6045964;23;20421;-63
2021/11/17 04:07:54;;;;;;;28.67;13.93;;;;;;;6.93;70.29;100097.63;6124609;23;20052;-64
2021/11/17 04:10:46;;;;;;;30.38;13.85;;;;;;;6.94;70.63;100112.41;6124135;23;20486;-61
2021/11/17 04:13:15;;;;;;;25.63;13.50;;;;;;;6.97;69.40;100102.72;6124752;23;20053;-61
2021/11/17 04:16:01;;;;;;;32.88;14.07;;;;;;;6.96;70.12;100106.25;6124167;23;20021;-61
2021/11/17 04:18:37;;;;;;;30.70;13.50;;;;;;;6.97;70.16;100112.31;6124010;23;20105;-61
2021/11/17 04:21:39;;;;;;;30.52;14.52;;;;;;;6.99;70.47;100121.81;6098575;23;20077;-61
2021/11/17 04:24:05;;;;;;;31.35;14.45;;;;;;;7.03;69.77;100118.19;6075475;23;20022;-60
2021/11/17 04:26:53;;;;;;;31.35;13.02;;;;;;;7.01;70.90;100108.69;6124192;23;20037;-60
2021/11/17 04:29:34;;;;;;;32.20;14.18;;;;;;;7.02;70.81;100105.16;6098102;23;20022;-60
2021/11/17 04:32:04;;;;;;;30.17;13.85;;;;;;;7.06;70.17;100111.16;6124760;23;20325;-60
2021/11/17 04:35:01;;;;;;;31.38;14.63;;;;;;;7.03;70.89;100104.25;6124281;23;20371;-63
2021/11/17 04:37:46;;;;;;;27.60;13.73;;;;;;;7.07;69.65;100108.47;6124191;23;20025;-62
2021/11/17 04:40:34;;;;;;;26.83;13.18;;;;;;;7.04;70.49;100104.19;6123741;23;20033;-62
2021/11/17 04:43:07;;;;;;;29.88;14.05;;;;;;;7.06;70.21;100108.53;6124050;23;20034;-62
2021/11/17 04:45:46;;;;;;;29.85;14.15;;;;;;;7.04;70.53;100106.78;6124181;23;20026;-60
2021/11/17 04:48:54;;;;;;;27.50;13.52;;;;;;;7.03;70.85;100112.94;6098150;23;20343;-62
2021/11/17 04:51:58;;;;;;;28.15;12.70;;;;;;;7.03;70.99;100101.66;6079839;23;20399;-62
2021/11/17 04:54:56;;;;;;;27.90;13.00;;;;;;;7.04;70.92;100103.34;6102347;23;20081;-61
2021/11/17 04:57:53;;;;;;;32.92;14.70;;;;;;;7.06;71.01;100095.44;6124403;23;20022;-60
2021/11/17 05:00:45;;;;;;;33.47;15.25;;;;;;;7.05;70.66;100097.19;6101995;23;20029;-60
2021/11/17 05:03:15;;;;;;;29.40;14.60;;;;;;;7.06;70.17;100098.06;6123999;23;20424;-61
2021/11/17 05:05:57;;;;;;;28.10;13.63;;;;;;;7.01;71.61;100095.59;6123869;23;20021;-62
2021/11/17 05:08:39;;;;;;;27.50;13.40;;;;;;;7.01;70.96;100099.06;6124080;23;20022;-63
2021/11/17 05:11:30;;;;;;;28.58;13.10;;;;;;;6.99;71.35;100095.66;6123645;23;20028;-64
2021/11/17 05:14:12;;;;;;;28.42;13.38;;;;;;;7.01;70.60;100093.84;6123790;23;20029;-60
2021/11/17 05:16:57;;;;;;;23.58;11.93;;;;;;;7.04;70.29;100098.09;6123936;23;20101;-62
2021/11/17 05:19:33;;;;;;;30.23;15.00;;;;;;;7.01;71.31;100085.13;6123260;23;20029;-62
2021/11/17 05:22:18;;;;;;;28.55;14.07;;;;;;;7.01;71.65;100082.50;6123818;23;20021;-60
2021/11/17 05:24:57;;;;;;;26.98;12.98;;;;;;;7.03;71.07;100083.31;6123751;23;20034;-61
2021/11/17 05:27:23;;;;;;;27.95;14.23;;;;;;;7.04;70.52;100080.63;6097965;23;20465;-61
2021/11/17 05:30:02;;;;;;;30.92;14.80;;;;;;;7.04;70.72;100091.09;6123402;23;20029;-63
2021/11/17 05:32:46;;;;;;;31.67;14.35;;;;;;;7.03;72.00;100099.03;6123838;23;20033;-61
2021/11/17 05:35:22;;;;;;;28.20;15.18;;;;;;;7.04;71.19;100098.94;6123719;23;20056;-61
2021/11/17 05:37:57;;;;;;;29.48;14.57;;;;;;;7.06;70.91;100096.28;6123992;23;20108;-62
2021/11/17 05:40:45;;;;;;;30.33;15.52;;;;;;;7.05;71.04;100102.44;6123466;23;20026;-61
2021/11/17 05:44:06;;;;;;;30.42;16.17;;;;;;;7.02;72.04;100084.22;6123921;23;20077;-63
2021/11/17 05:46:38;;;;;;;28.55;14.20;;;;;;;7.06;71.51;100079.72;6033549;23;20023;-62
2021/11/17 05:49:24;;;;;;;29.30;15.48;;;;;;;7.01;72.17;100041.50;6120337;23;20462;-65
2021/11/17 05:52:06;;;;;;;29.17;14.95;;;;;;;7.01;71.60;100027.53;6074884;23;20037;-60
2021/11/17 05:55:17;;;;;;;30.20;14.52;;;;;;;6.99;72.41;100022.38;6098556;23;20018;-61
2021/11/17 05:57:59;;;;;;;26.42;14.50;;;;;;;6.99;71.83;100018.91;6078490;23;20073;-61
2021/11/17 06:00:29;;;;;;;27.40;13.43;;;;;;;6.98;71.26;100061.69;6123078;23;20022;-61
2021/11/17 06:03:04;;;;;;;30.30;13.82;;;;;;;6.97;72.33;100059.97;6123490;23;20022;-63
2021/11/17 06:05:31;;;;;;;29.75;14.73;;;;;;;6.99;71.27;100058.16;6123688;23;20033;-61
2021/11/17 06:07:58;;;;;;;25.27;14.85;;;;;;;6.99;71.20;100048.53;6123453;23;20018;-61
2021/11/17 06:10:30;;;;;;;24.48;14.02;;;;;;;6.99;71.79;100052.94;6123379;23;20026;-62
2021/11/17 06:12:58;;;;;;;34.42;16.55;;;;;;;7.02;71.32;100055.41;6097657;23;20125;-61
2021/11/17 06:15:25;;;;;;;29.75;14.32;;;;;;;7.02;71.24;100044.94;6097871;23;20384;-62
2021/11/17 06:17:56;;;;;;;30.70;16.35;;;;;;;7.01;71.50;100044.13;6123146;23;20032;-60
2021/11/17 06:20:24;;;;;;;30.15;15.23;;;;;;;7.02;71.75;100037.09;6097415;23;20026;-60
2021/11/17 06:22:56;;;;;;;33.40;15.90;;;;;;;7.02;71.58;100043.19;6123561;23;20534;-62
2021/11/17 06:25:24;;;;;;;30.38;15.63;;;;;;;7.06;71.45;100043.09;6097593;23;20128;-61
2021/11/17 06:27:59;;;;;;;29.73;15.55;;;;;;;7.04;72.39;100045.75;6097388;23;20028;-61
2021/11/17 06:30:26;;;;;;;31.65;16.02;;;;;;;7.08;71.81;100046.47;6123314;23;20022;-61
2021/11/17 06:32:56;;;;;;;32.33;16.13;;;;;;;7.05;71.71;100052.69;6123014;23;20076;-61
2021/11/17 06:35:24;;;;;;;33.58;16.08;;;;;;;7.08;71.81;100064.81;6123219;23;20028;-62
2021/11/17 06:37:52;;;;;;;33.20;16.85;;;;;;;7.08;71.83;100063.06;6097582;23;20036;-60
2021/11/17 06:40:19;;;;;;;31.52;16.40;;;;;;;7.08;72.01;100060.44;6097058;23;20026;-60
2021/11/17 06:42:49;;;;;;;32.70;16.17;;;;;;;7.08;72.00;100068.28;6123135;23;20025;-61
2021/11/17 06:45:24;;;;;;;30.92;17.10;;;;;;;7.10;71.75;100071.69;6097199;23;20054;-61
2021/11/17 06:47:51;;;;;;;28.17;15.57;;;;;;;7.11;72.02;100073.38;6123158;23;20033;-60
2021/11/17 06:50:19;;;;;;;29.10;16.02;;;;;;;7.12;72.01;100064.66;6123140;23;20022;-61
2021/11/17 06:52:46;;;;;;;34.58;17.65;;;;;;;7.14;71.82;100067.22;6123158;23;20459;-61
2021/11/17 06:55:14;;;;;;;31.63;17.25;;;;;;;7.15;71.84;100063.69;6123454;23;20399;-60
2021/11/17 06:57:41;;;;;;;30.38;16.10;;;;;;;7.15;71.71;100064.50;6123234;23;20026;-61
2021/11/17 07:00:13;;;;;;;37.38;18.80;;;;;;;7.15;72.10;100066.28;6123022;23;20109;-61
2021/11/17 07:02:40;;;;;;;38.13;18.73;;;;;;;7.17;71.81;100067.94;6122723;23;20029;-60
2021/11/17 07:05:09;;;;;;;35.45;17.80;;;;;;;7.17;71.96;100062.72;6122332;23;20049;-62
2021/11/17 07:07:37;;;;;;;40.22;18.45;;;;;;;7.20;72.25;100066.09;6122797;23;20077;-61
2021/11/17 07:10:06;;;;;;;33.85;17.88;;;;;;;7.19;72.00;100065.28;6097153;23;20343;-60
2021/11/17 07:12:36;;;;;;;33.33;19.05;;;;;;;7.22;72.05;100069.53;6123030;23;20077;-61
2021/11/17 07:15:03;;;;;;;38.75;19.73;;;;;;;7.22;72.31;100072.97;6097470;23;20022;-62
2021/11/17 07:17:30;;;;;;;38.15;19.42;;;;;;;7.25;71.87;100074.66;6097071;23;20034;-64
2021/11/17 07:19:57;;;;;;;36.38;19.92;;;;;;;7.26;72.14;100081.59;6122644;23;20022;-61
2021/11/17 07:22:24;;;;;;;41.95;20.85;;;;;;;7.27;71.86;100070.19;6123226;23;20375;-60
2021/11/17 07:24:51;;;;;;;32.50;19.05;;;;;;;7.27;72.07;100085.91;6123164;23;20053;-60
2021/11/17 07:27:22;;;;;;;35.13;17.92;;;;;;;7.28;72.17;100091.09;6123119;23;20021;-61
2021/11/17 07:29:54;;;;;;;36.90;19.60;;;;;;;7.29;72.38;100084.94;6097611;23;20044;-62
2021/11/17 07:32:23;;;;;;;32.03;16.80;;;;;;;7.34;72.25;100082.16;6123543;23;20032;-63
2021/11/17 07:34:51;;;;;;;32.85;17.95;;;;;;;7.37;72.07;100079.41;6124047;23;20022;-60
2021/11/17 07:37:18;;;;;;;36.17;20.17;;;;;;;7.39;72.07;100077.59;6098148;23;20029;-60
2021/11/17 07:39:45;;;;;;;36.15;19.52;;;;;;;7.39;72.54;100080.22;6123607;23;20030;-62
2021/11/17 07:42:12;;;;;;;35.60;19.13;;;;;;;7.41;72.40;100091.47;6124272;23;20030;-61
2021/11/17 07:44:38;;;;;;;37.03;18.27;;;;;;;7.44;72.05;100082.63;6124790;23;20391;-60
2021/11/17 07:47:05;;;;;;;37.92;19.75;;;;;;;7.47;71.98;100092.16;6124762;23;20026;-60
2021/11/17 07:49:32;;;;;;;37.75;19.90;;;;;;;7.46;72.09;100091.31;6124176;23;20036;-62
2021/11/17 07:51:59;;;;;;;35.28;18.83;;;;;;;7.48;71.88;100086.84;6124692;23;20021;-60
2021/11/17 07:54:27;;;;;;;39.45;20.35;;;;;;;7.49;71.88;100090.34;6124798;23;20018;-60
2021/11/17 07:56:55;;;;;;;34.13;17.98;;;;;;;7.51;72.02;100096.38;6124429;23;20058;-63
2021/11/17 07:59:25;;;;;;;37.03;18.75;;;;;;;7.51;72.28;100093.75;6098947;23;20057;-61
2021/11/17 08:01:55;;;;;;;37.42;20.30;;;;;;;7.50;72.39;100092.03;6124415;23;20022;-61
2021/11/17 08:04:24;;;;;;;36.88;19.05;;;;;;;7.52;71.94;100093.66;6125036;23;20097;-61
2021/11/17 08:06:52;;;;;;;37.15;19.00;;;;;;;7.53;72.29;100091.91;6098850;23;20022;-62
2021/11/17 08:09:19;;;;;;;38.20;19.80;;;;;;;7.54;71.99;100098.84;6124798;23;20030;-60
2021/11/17 08:11:46;;;;;;;37.45;20.60;;;;;;;7.55;72.20;100097.94;6098497;23;20026;-64
2021/11/17 08:14:14;;;;;;;41.00;21.23;;;;;;;7.55;71.84;100090.94;6124210;23;20518;-61
2021/11/17 08:16:41;;;;;;;38.42;21.55;;;;;;;7.56;72.29;100094.44;6124705;23;20030;-61
2021/11/17 08:19:08;;;;;;;38.55;21.50;;;;;;;7.56;72.23;100092.63;6098670;23;20022;-60
2021/11/17 08:21:35;;;;;;;38.97;21.60;;;;;;;7.57;71.89;100090.88;6124331;23;20134;-60
2021/11/17 08:24:02;;;;;;;45.53;24.75;;;;;;;7.58;72.03;100084.72;6124190;23;20032;-62
2021/11/17 08:26:29;;;;;;;44.20;23.77;;;;;;;7.59;72.04;100088.22;6124397;23;20104;-60
2021/11/17 08:28:55;;;;;;;45.58;22.50;;;;;;;7.59;72.26;100094.28;6124128;23;20078;-60
2021/11/17 08:31:24;;;;;;;43.92;24.45;;;;;;;7.60;72.29;100090.78;6124059;23;20034;-62
2021/11/17 08:33:53;;;;;;;45.08;24.67;;;;;;;7.60;72.38;100085.53;6124208;23;20455;-60
2021/11/17 08:36:20;;;;;;;44.50;25.92;;;;;;;7.60;72.42;100082.91;6123952;23;20022;-61
2021/11/17 08:38:50;;;;;;;50.20;26.75;;;;;;;7.61;72.27;100092.47;6123727;23;20073;-60
2021/11/17 08:41:18;;;;;;;45.90;24.63;;;;;;;7.63;71.94;100090.63;6124108;23;20021;-60
2021/11/17 08:43:44;;;;;;;54.97;27.15;;;;;;;7.63;72.18;100085.38;6124513;23;20033;-64
2021/11/17 08:46:12;;;;;;;47.90;25.52;;;;;;;7.65;72.26;100091.44;6098442;23;20022;-61
2021/11/17 08:48:38;;;;;;;52.47;27.63;;;;;;;7.67;72.12;100094.84;6124257;23;20097;-62
2021/11/17 08:51:12;;;;;;;47.60;26.48;;;;;;;7.67;72.55;100086.16;6123449;23;20382;-60
2021/11/17 08:53:42;;;;;;;52.85;26.10;;;;;;;7.71;72.36;100087.72;6098247;23;20033;-60
2021/11/17 08:56:10;;;;;;;47.42;25.48;;;;;;;7.72;72.50;100089.44;6124720;23;20037;-63
2021/11/17 08:58:39;;;;;;;52.17;27.75;;;;;;;7.73;72.33;100095.53;6111964;23;20025;-61
2021/11/17 09:01:06;;;;;;;50.80;25.92;;;;;;;7.74;72.08;100092.00;6097971;23;20026;-61
2021/11/17 09:03:34;;;;;;;47.03;24.88;;;;;;;7.75;72.13;100084.06;6123860;23;20033;-60
2021/11/17 09:06:02;;;;;;;47.67;26.63;;;;;;;7.74;72.49;100086.75;6124203;23;20021;-64
2021/11/17 09:08:29;;;;;;;47.78;25.48;;;;;;;7.75;72.07;100091.06;6123865;23;20092;-63
2021/11/17 09:11:00;;;;;;;55.25;26.98;;;;;;;7.73;72.66;100091.13;6123709;23;20339;-60
2021/11/17 09:13:27;;;;;;;45.88;23.65;;;;;;;7.76;72.30;100098.88;6098200;23;20022;-61
2021/11/17 09:15:55;;;;;;;43.03;24.08;;;;;;;7.78;72.57;100106.69;6098217;23;20025;-59
2021/11/17 09:18:25;;;;;;;51.90;26.35;;;;;;;7.77;72.53;100110.19;6097993;23;20037;-61
2021/11/17 09:20:52;;;;;;;46.55;25.15;;;;;;;7.79;72.59;100118.88;6097816;23;20026;-61
2021/11/17 09:23:20;;;;;;;52.33;25.70;;;;;;;7.81;72.39;100127.50;6098144;23;20026;-60
2021/11/17 09:25:48;;;;;;;45.65;25.75;;;;;;;7.84;72.82;100129.19;6124068;23;20026;-62
2021/11/17 09:28:20;;;;;;;44.20;22.60;;;;;;;7.86;72.57;100111.59;6123493;23;20026;-63
2021/11/17 09:30:49;;;;;;;49.90;26.30;;;;;;;7.88;72.81;100121.13;6123486;23;20025;-60
2021/11/17 09:33:19;;;;;;;47.97;23.92;;;;;;;7.91;72.34;100123.63;6123863;23;20026;-61
2021/11/17 09:35:46;;;;;;;47.55;26.30;;;;;;;7.93;72.42;100124.41;6123505;23;20022;-61
2021/11/17 09:38:13;;;;;;;48.13;25.50;;;;;;;7.95;72.43;100117.34;6097824;23;20259;-61
2021/11/17 09:41:01;;;;;;;50.22;25.63;;;;;;;7.97;72.76;100119.91;6097811;23;20033;-61
2021/11/17 09:43:43;;;;;;;50.47;25.27;;;;;;;7.99;73.12;100123.31;6097652;23;20022;-61
2021/11/17 09:46:12;;;;;;;54.03;27.58;;;;;;;8.03;72.74;100117.03;6123567;23;20026;-61
2021/11/17 09:48:43;;;;;;;50.53;24.95;;;;;;;8.06;73.20;100113.41;6123419;23;20459;-61
2021/11/17 09:51:23;;;;;;;51.00;25.73;;;;;;;8.07;73.30;100109.88;6097492;23;20029;-60
2021/11/17 09:54:00;;;;;;;51.58;26.65;;;;;;;8.13;73.07;100088.66;6123737;23;20028;-61
2021/11/17 09:56:33;;;;;;;52.58;27.13;;;;;;;8.16;73.25;100088.53;6097930;23;20029;-60
2021/11/17 09:59:05;;;;;;;57.22;28.98;;;;;;;8.20;73.49;100090.13;6123285;23;20096;-61
2021/11/17 10:01:41;;;;;;;49.17;26.25;;;;;;;8.25;73.39;100082.03;6098319;23;20437;-62
2021/11/17 10:04:12;;;;;;;49.50;26.85;;;;;;;8.32;73.08;100090.50;6123216;23;20467;-63
2021/11/17 10:14:59;;;;;;;56.72;27.95;;;;;;;8.47;73.06;100123.97;6123593;23;20077;-60
2021/11/17 10:17:43;;;;;;;60.47;28.80;;;;;;;8.45;73.72;100123.16;6123656;23;20104;-60
2021/11/17 10:20:58;;;;;;;53.97;28.30;;;;;;;8.50;73.64;100140.50;6123394;23;20021;-62
2021/11/17 10:23:27;;;;;;;55.78;27.80;;;;;;;8.56;72.49;100137.66;6123461;23;20026;-59
2021/11/17 10:26:03;;;;;;;57.17;27.27;;;;;;;8.56;73.38;100129.78;6123124;23;20498;-60
2021/11/17 10:28:35;;;;;;;50.15;24.65;;;;;;;8.59;73.06;100121.75;6123525;23;20033;-62
2021/11/17 10:31:03;;;;;;;54.13;26.40;;;;;;;8.61;72.77;100119.94;6123129;23;20312;-60
2021/11/17 10:33:45;;;;;;;58.00;26.38;;;;;;;8.62;73.58;100126.03;6123436;23;20030;-61
2021/11/17 10:36:20;;;;;;;54.15;27.23;;;;;;;8.66;73.55;100130.22;6123385;23;20351;-60
2021/11/17 10:38:56;;;;;;;56.03;25.90;;;;;;;8.68;73.23;100139.72;6123011;23;20022;-61
2021/11/17 10:41:29;;;;;;;56.33;28.60;;;;;;;8.71;73.35;100131.72;6097140;23;20081;-62
2021/11/17 10:44:06;;;;;;;52.92;26.63;;;;;;;8.74;73.16;100136.00;6123047;23;20057;-60
2021/11/17 10:46:44;;;;;;;56.13;27.17;;;;;;;8.77;73.27;100127.13;6123290;23;20026;-60
2021/11/17 10:49:16;;;;;;;57.72;26.80;;;;;;;8.80;72.98;100127.88;6097731;23;20082;-60
2021/11/17 10:52:01;;;;;;;53.47;26.10;;;;;;;8.83;73.43;100129.50;6123266;23;20518;-60
2021/11/17 10:54:30;;;;;;;57.25;25.10;;;;;;;8.89;72.90;100126.59;6123332;23;20030;-61
2021/11/17 10:57:04;;;;;;;52.63;25.77;;;;;;;8.91;73.04;100137.91;6122807;23;20026;-61
2021/11/17 10:59:32;;;;;;;51.20;24.27;;;;;;;8.95;72.93;100133.34;6122858;23;20466;-61
2021/11/17 11:02:00;;;;;;;53.63;25.45;;;;;;;8.98;73.00;100131.44;6098126;23;20025;-60
2021/11/17 11:04:44;;;;;;;48.92;23.92;;;;;;;8.97;73.58;100121.84;6125131;23;20037;-60
2021/11/17 11:07:26;;;;;;;45.63;23.17;;;;;;;9.01;73.42;100117.31;6099284;23;20061;-61
2021/11/17 11:10:08;;;;;;;52.38;24.33;;;;;;;9.06;72.93;100111.88;6125014;23;20034;-60
2021/11/17 11:12:38;;;;;;;51.13;24.10;;;;;;;9.09;72.73;100138.00;6098922;23;20029;-60
2021/11/17 11:15:11;;;;;;;48.22;22.77;;;;;;;9.11;73.16;100136.16;6125472;23;20087;-60
2021/11/17 11:17:43;;;;;;;50.70;22.50;;;;;;;9.12;72.97;100151.84;6099196;23;20041;-63
2021/11/17 11:20:19;;;;;;;51.15;22.38;;;;;;;9.14;73.12;100164.91;6125105;23;20101;-61
2021/11/17 11:22:58;;;;;;;45.55;22.75;;;;;;;9.17;73.25;100169.16;6124863;23;20029;-62
2021/11/17 11:25:52;;;;;;;47.90;22.40;;;;;;;9.20;73.43;100155.91;6125524;23;20022;-60
2021/11/17 11:28:22;;;;;;;45.10;20.75;;;;;;;9.24;73.23;100166.19;6098926;23;20025;-62
2021/11/17 11:31:01;;;;;;;40.15;19.98;;;;;;;9.29;72.80;100171.25;6124731;23;20029;-61
2021/11/17 11:33:33;;;;;;;47.83;21.05;;;;;;;9.32;72.73;100172.88;6124943;23;20066;-62
2021/11/17 11:36:12;;;;;;;41.08;18.92;;;;;;;9.32;73.20;100162.38;6099367;23;20022;-61
2021/11/17 11:38:43;;;;;;;40.88;18.00;;;;;;;9.35;73.33;100160.44;6123748;23;20034;-60
2021/11/17 11:41:19;;;;;;;39.03;18.20;;;;;;;9.37;73.04;100156.00;6124368;23;20022;-60
2021/11/17 11:43:46;;;;;;;31.50;16.17;;;;;;;9.44;72.88;100160.97;6098694;23;20022;-60
2021/11/17 11:46:27;;;;;;;36.63;17.63;;;;;;;9.46;73.35;100162.59;6124568;23;20028;-60
2021/11/17 11:48:58;;;;;;;36.75;17.40;;;;;;;9.51;72.93;100157.13;6124839;23;20028;-61
2021/11/17 11:51:51;;;;;;;39.60;17.65;;;;;;;9.51;73.42;100144.84;6098831;23;20022;-61
2021/11/17 11:54:28;;;;;;;40.70;18.13;;;;;;;9.56;72.84;100146.38;6123964;23;20404;-64
2021/11/17 11:57:01;;;;;;;38.28;17.73;;;;;;;9.57;72.88;100141.06;6124580;23;20391;-59
2021/11/17 11:59:30;;;;;;;38.72;17.95;;;;;;;9.60;72.46;100140.06;6124262;23;20022;-62
2021/11/17 12:02:19;;;;;;;34.60;17.27;;;;;;;9.58;73.19;100132.28;6124129;23;20466;-61
2021/11/17 12:04:50;;;;;;;36.65;16.38;;;;;;;9.63;72.67;100129.41;6124527;23;20380;-61
2021/11/17 12:07:24;;;;;;;33.95;16.65;;;;;;;9.62;73.06;100131.22;6124533;23;20029;-60
2021/11/17 12:10:03;;;;;;;37.22;17.60;;;;;;;9.63;72.86;100118.91;6124415;23;20101;-62
2021/11/17 12:12:37;;;;;;;34.22;16.05;;;;;;;9.64;72.61;100112.72;6098671;23;20316;-61
2021/11/17 12:15:18;;;;;;;42.15;17.92;;;;;;;9.63;73.02;100109.25;6097598;23;20026;-61
2021/11/17 12:17:46;;;;;;;36.75;16.75;;;;;;;9.67;72.38;100111.72;6098262;23;20026;-63
2021/11/17 12:20:28;;;;;;;36.83;16.73;;;;;;;9.63;73.06;100111.88;6098672;23;20029;-63
2021/11/17 12:22:57;;;;;;;39.47;17.52;;;;;;;9.69;72.48;100131.78;6124483;23;20018;-60
2021/11/17 12:25:32;;;;;;;40.90;18.88;;;;;;;9.70;73.01;100133.47;6124245;23;20030;-61
2021/11/17 12:28:10;;;;;;;35.10;14.90;;;;;;;9.72;73.04;100136.88;6124356;23;20026;-60
2021/11/17 12:30:44;;;;;;;32.78;14.75;;;;;;;9.76;73.21;100137.59;6098323;23;20018;-60
2021/11/17 12:33:21;;;;;;;29.58;15.70;;;;;;;9.81;73.12;100140.00;6098575;23;20051;-63
2021/11/17 12:36:18;;;;;;;31.92;15.68;;;;;;;9.84;73.28;100140.72;6124449;23;20038;-62
2021/11/17 12:38:46;;;;;;;31.48;15.27;;;;;;;9.90;72.79;100129.88;6124282;23;20054;-60
2021/11/17 12:41:15;;;;;;;34.08;14.48;;;;;;;9.93;72.83;100135.91;6124134;23;20025;-59
2021/11/17 12:43:52;;;;;;;29.60;14.57;;;;;;;9.94;72.99;100151.63;6124076;23;20118;-61
2021/11/17 12:46:43;;;;;;;28.70;13.93;;;;;;;9.96;72.98;100152.41;6101213;23;20057;-61
2021/11/17 12:49:22;;;;;;;27.23;13.68;;;;;;;10.00;72.30;100156.59;6123409;23;20021;-66
2021/11/17 12:52:33;;;;;;;31.25;14.98;;;;;;;10.01;72.84;100153.03;6123756;23;20032;-60
2021/11/17 12:55:18;;;;;;;25.88;12.85;;;;;;;10.06;72.36;100154.59;6059774;23;20458;-61
2021/11/17 12:57:55;;;;;;;27.40;13.90;;;;;;;10.07;72.66;100158.91;6098139;23;20328;-60
2021/11/17 13:00:22;;;;;;;29.40;13.82;;;;;;;10.11;72.21;100155.22;6097565;23;20466;-60
2021/11/17 13:02:54;;;;;;;31.83;14.70;;;;;;;10.11;72.27;100165.75;6124521;23;20418;-60
2021/11/17 13:05:37;;;;;;;26.23;13.50;;;;;;;10.10;72.68;100166.66;6124247;23;20029;-61
2021/11/17 13:08:03;;;;;;;29.20;14.10;;;;;;;10.14;72.24;100162.97;6124188;23;20025;-60
2021/11/17 13:10:42;;;;;;;35.40;16.05;;;;;;;10.11;72.59;100177.13;6123754;23;20033;-63
2021/11/17 13:13:23;;;;;;;29.42;14.10;;;;;;;10.11;73.13;100186.78;6123475;23;20022;-61
2021/11/17 13:16:19;;;;;;;29.42;14.73;;;;;;;10.13;72.93;100179.69;6123418;23;20350;-61
2021/11/17 13:18:46;;;;;;;28.65;14.18;;;;;;;10.20;72.48;100185.50;6124139;23;20018;-61
2021/11/17 13:21:21;;;;;;;33.83;14.88;;;;;;;10.19;72.95;100182.00;6123253;23;20347;-61
2021/11/17 13:24:04;;;;;;;29.50;14.52;;;;;;;10.22;72.99;100194.16;6123850;23;20036;-64
2021/11/17 13:26:49;;;;;;;32.55;13.85;;;;;;;10.24;72.90;100182.63;6123946;23;20093;-61
2021/11/17 13:29:45;;;;;;;30.88;15.52;;;;;;;10.26;72.89;100191.31;6123494;23;20366;-61
2021/11/17 13:32:12;;;;;;;26.98;14.02;;;;;;;10.33;72.40;100186.59;6123871;23;20022;-60
2021/11/17 13:34:46;;;;;;;34.40;15.57;;;;;;;10.34;72.42;100187.44;6123086;23;20022;-61
2021/11/17 13:37:39;;;;;;;33.88;14.98;;;;;;;10.33;72.64;100177.84;6097854;23;20406;-61
2021/11/17 13:40:23;;;;;;;27.25;13.68;;;;;;;10.35;72.62;100184.72;6123649;23;20028;-60
2021/11/17 13:42:51;;;;;;;28.40;13.60;;;;;;;10.40;72.43;100187.16;6123841;23;20051;-62
2021/11/17 13:45:22;;;;;;;32.97;13.73;;;;;;;10.40;72.50;100193.25;6123589;23;20224;-61
2021/11/17 13:47:51;;;;;;;29.65;14.05;;;;;;;10.43;72.58;100197.50;6124010;23;20018;-63
2021/11/17 13:50:22;;;;;;;31.05;15.02;;;;;;;10.46;72.59;100202.66;6097433;23;20518;-61
2021/11/17 13:52:49;;;;;;;35.42;15.68;;;;;;;10.50;72.49;100204.22;6123503;23;20030;-60
2021/11/17 13:55:20;;;;;;;34.80;16.10;;;;;;;10.52;72.51;100199.75;6123731;23;20029;-61
2021/11/17 13:57:48;;;;;;;35.38;15.73;;;;;;;10.56;72.47;100208.31;6097750;23;20077;-61
2021/11/17 14:00:17;;;;;;;34.97;15.13;;;;;;;10.60;72.72;100206.38;6097789;23;20112;-61
2021/11/17 14:02:47;;;;;;;30.30;14.20;;;;;;;10.62;72.54;100208.00;6097915;23;20030;-61
2021/11/17 14:05:16;;;;;;;37.35;14.90;;;;;;;10.66;72.46;100208.72;6124021;23;20057;-61
2021/11/17 14:07:43;;;;;;;31.30;14.55;;;;;;;10.70;72.58;100207.63;6123573;23;20580;-61
2021/11/17 14:10:10;;;;;;;32.42;14.52;;;;;;;10.72;72.37;100205.78;6123135;23;20032;-62
2021/11/17 14:12:38;;;;;;;32.08;15.45;;;;;;;10.76;72.35;100207.31;6123390;23;20032;-60
2021/11/17 14:15:06;;;;;;;29.20;14.10;;;;;;;10.80;72.23;100211.50;6123648;23;20022;-60
2021/11/17 14:17:34;;;;;;;31.75;14.88;;;;;;;10.85;72.14;100207.78;6123298;23;20034;-60
2021/11/17 14:20:01;;;;;;;33.60;14.18;;;;;;;10.88;71.74;100210.28;6123088;23;20029;-61
2021/11/17 14:22:27;;;;;;;31.90;15.13;;;;;;;10.88;71.64;100205.84;6123414;23;20022;-61
2021/11/17 14:24:58;;;;;;;30.98;14.18;;;;;;;10.89;71.41;100214.59;6097806;23;20022;-64
2021/11/17 14:27:24;;;;;;;34.67;14.88;;;;;;;10.87;71.52;100213.84;6123133;23;20029;-61
2021/11/17 14:29:56;;;;;;;30.85;14.23;;;;;;;10.87;71.60;100216.47;6123727;23;20026;-61